sensor_id;sensor_type;location;lat;lon;timestamp;pressure;altitude;pressure_sealevel;temperature;humidity
29935;BME280;19905;53.370;-6.314;2022-10-03T00:00:14;102039.19;;;13.34;100.00
29935;BME280;19905;53.370;-6.314;2022-10-03T00:03:16;102043.66;;;13.34;100.00
29935;BME280;19905;53.370;-6.314;2022-10-03T00:06:07;102040.25;;;13.32;100.00
29935;BME280;19905;53.370;-6.314;2022-10-03T00:08:55;102048.97;;;13.34;100.00
29935;BME280;19905;53.370;-6.314;2022-10-03T00:11:34;102039.41;;;13.31;100.00
29935;BME280;19905;53.370;-6.314;2022-10-03T00:14:16;102051.09;;;13.29;100.00
29935;BME280;19905;53.370;-6.314;2022-10-03T00:16:57;102045.84;;;13.27;100.00
29935;BME280;19905;53.370;-6.314;2022-10-03T00:19:34;102046.63;;;13.29;100.00
29935;BME280;19905;53.370;-6.314;2022-10-03T00:22:16;102048.31;;;13.30;100.00
29935;BME280;19905;53.370;-6.314;2022-10-03T00:24:59;102044.72;;;13.31;100.00
29935;BME280;19905;53.370;-6.314;2022-10-03T00:27:35;102049.06;;;13.32;100.00
29935;BME280;19905;53.370;-6.314;2022-10-03T00:30:17;102050.00;;;13.31;100.00
29935;BME280;19905;53.370;-6.314;2022-10-03T00:33:00;102046.50;;;13.31;100.00
29935;BME280;19905;53.370;-6.314;2022-10-03T00:35:58;102048.22;;;13.32;100.00
29935;BME280;19905;53.370;-6.314;2022-10-03T00:38:52;102041.31;;;13.29;100.00
29935;BME280;19905;53.370;-6.314;2022-10-03T00:45:36;102052.84;;;13.28;100.00
29935;BME280;19905;53.370;-6.314;2022-10-03T00:51:39;102046.41;;;13.32;100.00
29935;BME280;19905;53.370;-6.314;2022-10-03T00:54:28;102051.94;;;13.29;100.00
29935;BME280;19905;53.370;-6.314;2022-10-03T00:57:16;102047.00;;;13.23;100.00
29935;BME280;19905;53.370;-6.314;2022-10-03T01:00:12;102046.81;;;13.26;100.00
29935;BME280;19905;53.370;-6.314;2022-10-03T01:03:14;102052.00;;;13.28;100.00
29935;BME280;19905;53.370;-6.314;2022-10-03T01:05:59;102053.75;;;13.29;100.00
29935;BME280;19905;53.370;-6.314;2022-10-03T01:08:58;102048.50;;;13.27;100.00
29935;BME280;19905;53.370;-6.314;2022-10-03T01:11:44;102037.91;;;13.27;100.00
29935;BME280;19905;53.370;-6.314;2022-10-03T01:14:38;102052.84;;;13.28;100.00
29935;BME280;19905;53.370;-6.314;2022-10-03T01:17:15;102038.13;;;13.24;100.00
29935;BME280;19905;53.370;-6.314;2022-10-03T01:20:16;102040.66;;;13.26;100.00
29935;BME280;19905;53.370;-6.314;2022-10-03T01:23:12;102035.47;;;13.24;100.00
29935;BME280;19905;53.370;-6.314;2022-10-03T01:25:55;102030.16;;;13.24;100.00
29935;BME280;19905;53.370;-6.314;2022-10-03T01:28:48;102034.41;;;13.27;100.00
29935;BME280;19905;53.370;-6.314;2022-10-03T01:31:43;102038.28;;;13.21;100.00
29935;BME280;19905;53.370;-6.314;2022-10-03T01:34:22;102036.47;;;13.21;100.00
29935;BME280;19905;53.370;-6.314;2022-10-03T01:37:03;102042.75;;;13.20;100.00
29935;BME280;19905;53.370;-6.314;2022-10-03T01:39:40;102044.63;;;13.18;100.00
29935;BME280;19905;53.370;-6.314;2022-10-03T01:42:16;102037.50;;;13.19;100.00
29935;BME280;19905;53.370;-6.314;2022-10-03T01:45:02;102041.25;;;13.16;100.00
29935;BME280;19905;53.370;-6.314;2022-10-03T01:47:43;102031.47;;;13.17;100.00
29935;BME280;19905;53.370;-6.314;2022-10-03T01:50:24;102021.28;;;13.11;100.00
29935;BME280;19905;53.370;-6.314;2022-10-03T01:53:02;102024.84;;;13.10;100.00
29935;BME280;19905;53.370;-6.314;2022-10-03T01:55:44;102019.56;;;13.10;100.00
29935;BME280;19905;53.370;-6.314;2022-10-03T01:58:24;102020.44;;;13.10;100.00
29935;BME280;19905;53.370;-6.314;2022-10-03T02:01:03;102027.44;;;13.11;100.00
29935;BME280;19905;53.370;-6.314;2022-10-03T02:03:41;102031.03;;;13.10;100.00
29935;BME280;19905;53.370;-6.314;2022-10-03T02:06:20;102022.97;;;13.12;100.00
29935;BME280;19905;53.370;-6.314;2022-10-03T02:08:58;102022.22;;;13.10;100.00
29935;BME280;19905;53.370;-6.314;2022-10-03T02:11:34;102024.56;;;13.14;100.00
29935;BME280;19905;53.370;-6.314;2022-10-03T02:14:15;102018.72;;;13.09;100.00
29935;BME280;19905;53.370;-6.314;2022-10-03T02:16:55;102018.72;;;13.09;100.00
29935;BME280;19905;53.370;-6.314;2022-10-03T02:19:29;102015.97;;;13.11;100.00
29935;BME280;19905;53.370;-6.314;2022-10-03T02:22:00;102009.81;;;13.10;100.00
29935;BME280;19905;53.370;-6.314;2022-10-03T02:24:40;102008.00;;;13.11;100.00
29935;BME280;19905;53.370;-6.314;2022-10-03T02:27:47;102002.59;;;13.12;100.00
29935;BME280;19905;53.370;-6.314;2022-10-03T02:30:28;101999.84;;;13.14;100.00
29935;BME280;19905;53.370;-6.314;2022-10-03T02:33:41;101994.63;;;13.12;100.00
29935;BME280;19905;53.370;-6.314;2022-10-03T02:36:35;101995.19;;;13.17;100.00
29935;BME280;19905;53.370;-6.314;2022-10-03T02:48:50;101987.94;;;13.07;100.00
29935;BME280;19905;53.370;-6.314;2022-10-03T02:52:07;101991.56;;;13.06;100.00
29935;BME280;19905;53.370;-6.314;2022-10-03T02:54:54;101999.41;;;13.07;100.00
29935;BME280;19905;53.370;-6.314;2022-10-03T03:00:46;101992.25;;;12.95;100.00
29935;BME280;19905;53.370;-6.314;2022-10-03T03:03:46;101994.06;;;12.94;100.00
29935;BME280;19905;53.370;-6.314;2022-10-03T03:06:52;101988.19;;;12.89;100.00
29935;BME280;19905;53.370;-6.314;2022-10-03T03:09:52;101982.13;;;12.87;100.00
29935;BME280;19905;53.370;-6.314;2022-10-03T03:13:00;101973.31;;;12.87;100.00
29935;BME280;19905;53.370;-6.314;2022-10-03T03:19:11;101959.34;;;12.85;100.00
29935;BME280;19905;53.370;-6.314;2022-10-03T03:21:52;101964.53;;;12.86;100.00
29935;BME280;19905;53.370;-6.314;2022-10-03T03:24:42;101956.69;;;12.85;100.00
29935;BME280;19905;53.370;-6.314;2022-10-03T03:27:28;101961.03;;;12.86;100.00
29935;BME280;19905;53.370;-6.314;2022-10-03T03:30:07;101950.53;;;12.84;100.00
29935;BME280;19905;53.370;-6.314;2022-10-03T03:32:55;101954.03;;;12.85;100.00
29935;BME280;19905;53.370;-6.314;2022-10-03T03:35:43;101945.63;;;12.78;100.00
29935;BME280;19905;53.370;-6.314;2022-10-03T03:38:30;101943.91;;;12.77;100.00
29935;BME280;19905;53.370;-6.314;2022-10-03T03:41:21;101939.56;;;12.76;100.00
29935;BME280;19905;53.370;-6.314;2022-10-03T03:44:02;101936.19;;;12.74;100.00
29935;BME280;19905;53.370;-6.314;2022-10-03T03:46:43;101931.81;;;12.73;100.00
29935;BME280;19905;53.370;-6.314;2022-10-03T03:49:28;101925.78;;;12.71;100.00
29935;BME280;19905;53.370;-6.314;2022-10-03T03:52:10;101922.16;;;12.72;100.00
29935;BME280;19905;53.370;-6.314;2022-10-03T03:54:57;101923.63;;;12.63;100.00
29935;BME280;19905;53.370;-6.314;2022-10-03T03:57:42;101916.94;;;12.58;100.00
29935;BME280;19905;53.370;-6.314;2022-10-03T04:00:18;101920.53;;;12.57;100.00
29935;BME280;19905;53.370;-6.314;2022-10-03T04:03:02;101925.28;;;12.52;100.00
29935;BME280;19905;53.370;-6.314;2022-10-03T04:05:45;101913.38;;;12.44;100.00
29935;BME280;19905;53.370;-6.314;2022-10-03T04:08:36;101910.91;;;12.41;100.00
29935;BME280;19905;53.370;-6.314;2022-10-03T04:11:19;101912.38;;;12.33;100.00
29935;BME280;19905;53.370;-6.314;2022-10-03T04:16:58;101912.38;;;12.33;100.00
29935;BME280;19905;53.370;-6.314;2022-10-03T04:20:01;101911.31;;;12.35;100.00
29935;BME280;19905;53.370;-6.314;2022-10-03T04:22:58;101892.03;;;12.33;100.00
29935;BME280;19905;53.370;-6.314;2022-10-03T04:25:44;101889.28;;;12.35;100.00
29935;BME280;19905;53.370;-6.314;2022-10-03T04:28:37;101893.72;;;12.34;100.00
29935;BME280;19905;53.370;-6.314;2022-10-03T04:31:25;101886.53;;;12.36;100.00
29935;BME280;19905;53.370;-6.314;2022-10-03T04:34:14;101889.69;;;12.29;100.00
29935;BME280;19905;53.370;-6.314;2022-10-03T04:37:09;101885.13;;;12.31;100.00
29935;BME280;19905;53.370;-6.314;2022-10-03T04:39:46;101887.66;;;12.32;100.00
29935;BME280;19905;53.370;-6.314;2022-10-03T04:42:28;101878.97;;;12.30;100.00
29935;BME280;19905;53.370;-6.314;2022-10-03T04:45:33;101875.47;;;12.30;100.00
29935;BME280;19905;53.370;-6.314;2022-10-03T04:48:09;101864.13;;;12.28;100.00
29935;BME280;19905;53.370;-6.314;2022-10-03T04:50:49;101863.19;;;12.29;100.00
29935;BME280;19905;53.370;-6.314;2022-10-03T04:53:37;101864.03;;;12.29;100.00
29935;BME280;19905;53.370;-6.314;2022-10-03T04:56:22;101869.63;;;12.25;100.00
29935;BME280;19905;53.370;-6.314;2022-10-03T04:59:06;101876.53;;;12.27;100.00
29935;BME280;19905;53.370;-6.314;2022-10-03T05:01:43;101869.22;;;12.31;100.00
29935;BME280;19905;53.370;-6.314;2022-10-03T05:04:24;101868.19;;;12.33;100.00
29935;BME280;19905;53.370;-6.314;2022-10-03T05:07:03;101870.06;;;12.31;100.00
29935;BME280;19905;53.370;-6.314;2022-10-03T05:09:41;101862.78;;;12.35;100.00
29935;BME280;19905;53.370;-6.314;2022-10-03T05:12:16;101859.41;;;12.33;100.00
29935;BME280;19905;53.370;-6.314;2022-10-03T05:15:00;101858.03;;;12.40;100.00
29935;BME280;19905;53.370;-6.314;2022-10-03T05:17:44;101834.84;;;12.43;100.00
29935;BME280;19905;53.370;-6.314;2022-10-03T05:20:42;101837.38;;;12.45;100.00
29935;BME280;19905;53.370;-6.314;2022-10-03T05:23:22;101834.00;;;12.43;100.00
29935;BME280;19905;53.370;-6.314;2022-10-03T05:26:01;101835.56;;;12.45;100.00
29935;BME280;19905;53.370;-6.314;2022-10-03T05:28:58;101843.44;;;12.47;100.00
29935;BME280;19905;53.370;-6.314;2022-10-03T05:31:42;101838.97;;;12.48;100.00
29935;BME280;19905;53.370;-6.314;2022-10-03T05:34:25;101834.53;;;12.48;100.00
29935;BME280;19905;53.370;-6.314;2022-10-03T05:37:18;101836.53;;;12.44;100.00
29935;BME280;19905;53.370;-6.314;2022-10-03T05:39:56;101840.78;;;12.47;100.00
29935;BME280;19905;53.370;-6.314;2022-10-03T05:42:45;101834.84;;;12.43;100.00
29935;BME280;19905;53.370;-6.314;2022-10-03T05:45:26;101827.63;;;12.45;100.00
29935;BME280;19905;53.370;-6.314;2022-10-03T05:48:10;101834.72;;;12.45;100.00
29935;BME280;19905;53.370;-6.314;2022-10-03T05:50:55;101834.19;;;12.40;100.00
29935;BME280;19905;53.370;-6.314;2022-10-03T05:54:24;101838.94;;;12.35;100.00
29935;BME280;19905;53.370;-6.314;2022-10-03T06:00:09;101826.19;;;12.27;100.00
29935;BME280;19905;53.370;-6.314;2022-10-03T06:02:58;101834.34;;;12.24;100.00
29935;BME280;19905;53.370;-6.314;2022-10-03T06:05:45;101828.22;;;12.24;100.00
29935;BME280;19905;53.370;-6.314;2022-10-03T06:08:51;101818.75;;;12.19;100.00
29935;BME280;19905;53.370;-6.314;2022-10-03T06:11:39;101819.50;;;12.21;100.00
29935;BME280;19905;53.370;-6.314;2022-10-03T06:14:26;101812.41;;;12.22;100.00
29935;BME280;19905;53.370;-6.314;2022-10-03T06:26:34;101817.84;;;12.33;100.00
29935;BME280;19905;53.370;-6.314;2022-10-03T06:29:33;101820.81;;;12.41;100.00
29935;BME280;19905;53.370;-6.314;2022-10-03T06:48:26;101812.63;;;12.71;100.00
29935;BME280;19905;53.370;-6.314;2022-10-03T06:51:29;101816.13;;;12.72;100.00
29935;BME280;19905;53.370;-6.314;2022-10-03T06:57:31;101808.94;;;12.74;100.00
29935;BME280;19905;53.370;-6.314;2022-10-03T07:00:14;101808.06;;;12.73;100.00
29935;BME280;19905;53.370;-6.314;2022-10-03T07:03:31;101803.94;;;12.69;100.00
29935;BME280;19905;53.370;-6.314;2022-10-03T07:06:40;101802.88;;;12.72;100.00
29935;BME280;19905;53.370;-6.314;2022-10-03T07:09:55;101809.00;;;12.72;100.00
29935;BME280;19905;53.370;-6.314;2022-10-03T07:15:47;101818.47;;;12.77;100.00
29935;BME280;19905;53.370;-6.314;2022-10-03T07:25:31;101810.97;;;12.83;100.00
29935;BME280;19905;53.370;-6.314;2022-10-03T07:28:24;101818.59;;;12.88;100.00
29935;BME280;19905;53.370;-6.314;2022-10-03T07:31:07;101812.41;;;12.87;100.00
29935;BME280;19905;53.370;-6.314;2022-10-03T07:37:07;101826.00;;;12.95;100.00
29935;BME280;19905;53.370;-6.314;2022-10-03T07:49:23;101814.25;;;13.00;100.00
29935;BME280;19905;53.370;-6.314;2022-10-03T07:52:20;101807.25;;;12.98;100.00
29935;BME280;19905;53.370;-6.314;2022-10-03T07:55:16;101800.66;;;13.04;100.00
29935;BME280;19905;53.370;-6.314;2022-10-03T08:01:05;101798.84;;;13.05;100.00
29935;BME280;19905;53.370;-6.314;2022-10-03T08:06:46;101800.56;;;13.06;100.00
29935;BME280;19905;53.370;-6.314;2022-10-03T08:12:44;101805.66;;;13.09;100.00
29935;BME280;19905;53.370;-6.314;2022-10-03T08:15:26;101806.50;;;13.09;100.00
29935;BME280;19905;53.370;-6.314;2022-10-03T08:18:21;101808.22;;;13.10;100.00
29935;BME280;19905;53.370;-6.314;2022-10-03T08:21:00;101807.25;;;13.11;100.00
29935;BME280;19905;53.370;-6.314;2022-10-03T08:23:59;101800.78;;;13.15;100.00
29935;BME280;19905;53.370;-6.314;2022-10-03T08:26:48;101802.34;;;13.18;100.00
29935;BME280;19905;53.370;-6.314;2022-10-03T08:35:52;101787.28;;;13.18;100.00
29935;BME280;19905;53.370;-6.314;2022-10-03T08:44:53;101788.72;;;13.24;100.00
29935;BME280;19905;53.370;-6.314;2022-10-03T08:48:03;101778.69;;;13.28;100.00
29935;BME280;19905;53.370;-6.314;2022-10-03T08:50:45;101772.88;;;13.35;100.00
29935;BME280;19905;53.370;-6.314;2022-10-03T08:56:47;101769.84;;;13.53;100.00
29935;BME280;19905;53.370;-6.314;2022-10-03T09:06:42;101763.03;;;13.61;100.00
29935;BME280;19905;53.370;-6.314;2022-10-03T09:19:04;101738.13;;;13.75;100.00
29935;BME280;19905;53.370;-6.314;2022-10-03T09:21:58;101728.22;;;13.77;100.00
29935;BME280;19905;53.370;-6.314;2022-10-03T09:27:42;101720.00;;;13.93;100.00
29935;BME280;19905;53.370;-6.314;2022-10-03T09:30:23;101714.94;;;14.01;100.00
29935;BME280;19905;53.370;-6.314;2022-10-03T09:33:31;101697.72;;;14.07;100.00
29935;BME280;19905;53.370;-6.314;2022-10-03T09:39:45;101692.06;;;14.11;100.00
29935;BME280;19905;53.370;-6.314;2022-10-03T09:45:34;101683.38;;;14.20;100.00
29935;BME280;19905;53.370;-6.314;2022-10-03T09:51:37;101669.13;;;14.21;100.00
29935;BME280;19905;53.370;-6.314;2022-10-03T09:54:32;101662.13;;;14.20;100.00
29935;BME280;19905;53.370;-6.314;2022-10-03T10:00:23;101665.63;;;14.21;100.00
29935;BME280;19905;53.370;-6.314;2022-10-03T10:09:43;101654.88;;;14.22;100.00
29935;BME280;19905;53.370;-6.314;2022-10-03T10:15:28;101653.19;;;14.21;100.00
29935;BME280;19905;53.370;-6.314;2022-10-03T10:24:43;101648.50;;;14.36;100.00
29935;BME280;19905;53.370;-6.314;2022-10-03T10:27:35;101645.97;;;14.35;100.00
29935;BME280;19905;53.370;-6.314;2022-10-03T10:30:30;101637.63;;;14.39;100.00
29935;BME280;19905;53.370;-6.314;2022-10-03T10:33:38;101642.19;;;14.37;100.00
29935;BME280;19905;53.370;-6.314;2022-10-03T10:36:50;101641.13;;;14.40;100.00
29935;BME280;19905;53.370;-6.314;2022-10-03T10:43:12;101634.00;;;14.40;100.00
29935;BME280;19905;53.370;-6.314;2022-10-03T11:18:25;101565.41;;;15.96;100.00
29935;BME280;19905;53.370;-6.314;2022-10-03T11:24:28;101550.50;;;16.15;100.00
29935;BME280;19905;53.370;-6.314;2022-10-03T11:27:32;101553.84;;;16.17;100.00
29935;BME280;19905;53.370;-6.314;2022-10-03T11:30:26;101548.00;;;16.23;100.00
29935;BME280;19905;53.370;-6.314;2022-10-03T11:33:52;101534.13;;;16.29;100.00
29935;BME280;19905;53.370;-6.314;2022-10-03T11:37:05;101533.00;;;16.22;100.00
29935;BME280;19905;53.370;-6.314;2022-10-03T11:39:44;101529.06;;;16.26;100.00
29935;BME280;19905;53.370;-6.314;2022-10-03T11:42:31;101521.78;;;16.28;100.00
29935;BME280;19905;53.370;-6.314;2022-10-03T11:45:19;101506.84;;;16.16;100.00
29935;BME280;19905;53.370;-6.314;2022-10-03T11:50:47;101505.97;;;16.06;100.00
29935;BME280;19905;53.370;-6.314;2022-10-03T11:53:27;101506.38;;;16.01;100.00
29935;BME280;19905;53.370;-6.314;2022-10-03T11:56:15;101511.41;;;15.94;100.00
29935;BME280;19905;53.370;-6.314;2022-10-03T11:59:10;101517.97;;;15.90;100.00
29935;BME280;19905;53.370;-6.314;2022-10-03T12:01:54;101530.13;;;15.83;100.00
29935;BME280;19905;53.370;-6.314;2022-10-03T12:04:29;101505.94;;;15.75;100.00
29935;BME280;19905;53.370;-6.314;2022-10-03T12:07:08;101518.03;;;15.79;100.00
29935;BME280;19905;53.370;-6.314;2022-10-03T12:10:00;101513.69;;;15.78;100.00
29935;BME280;19905;53.370;-6.314;2022-10-03T12:12:37;101490.16;;;15.83;100.00
29935;BME280;19905;53.370;-6.314;2022-10-03T12:15:22;101493.72;;;15.93;100.00
29935;BME280;19905;53.370;-6.314;2022-10-03T12:18:00;101482.25;;;16.02;100.00
29935;BME280;19905;53.370;-6.314;2022-10-03T12:20:38;101478.78;;;16.12;100.00
29935;BME280;19905;53.370;-6.314;2022-10-03T12:23:26;101474.34;;;16.22;100.00
29935;BME280;19905;53.370;-6.314;2022-10-03T12:25:59;101469.56;;;16.25;100.00
29935;BME280;19905;53.370;-6.314;2022-10-03T12:28:34;101475.66;;;16.37;100.00
29935;BME280;19905;53.370;-6.314;2022-10-03T12:31:11;101470.81;;;16.21;100.00
29935;BME280;19905;53.370;-6.314;2022-10-03T12:33:50;101472.53;;;16.22;100.00
29935;BME280;19905;53.370;-6.314;2022-10-03T12:36:26;101474.66;;;16.29;100.00
29935;BME280;19905;53.370;-6.314;2022-10-03T12:39:10;101455.56;;;16.33;100.00
29935;BME280;19905;53.370;-6.314;2022-10-03T12:42:01;101466.94;;;16.35;100.00
29935;BME280;19905;53.370;-6.314;2022-10-03T12:44:40;101470.53;;;16.65;100.00
29935;BME280;19905;53.370;-6.314;2022-10-03T12:47:25;101464.38;;;16.74;100.00
29935;BME280;19905;53.370;-6.314;2022-10-03T12:50:28;101458.59;;;16.69;100.00
29935;BME280;19905;53.370;-6.314;2022-10-03T12:56:05;101436.31;;;16.80;100.00
29935;BME280;19905;53.370;-6.314;2022-10-03T12:58:48;101455.28;;;16.86;100.00
29935;BME280;19905;53.370;-6.314;2022-10-03T13:01:25;101440.91;;;16.68;100.00
29935;BME280;19905;53.370;-6.314;2022-10-03T13:03:58;101440.19;;;16.66;100.00
29935;BME280;19905;53.370;-6.314;2022-10-03T13:06:35;101442.16;;;16.64;100.00
29935;BME280;19905;53.370;-6.314;2022-10-03T13:09:46;101456.44;;;16.53;100.00
29935;BME280;19905;53.370;-6.314;2022-10-03T13:12:30;101453.66;;;16.55;100.00
29935;BME280;19905;53.370;-6.314;2022-10-03T13:18:44;101439.19;;;16.67;100.00
29935;BME280;19905;53.370;-6.314;2022-10-03T13:21:19;101421.25;;;16.69;100.00
29935;BME280;19905;53.370;-6.314;2022-10-03T13:24:22;101419.28;;;16.71;100.00
29935;BME280;19905;53.370;-6.314;2022-10-03T13:27:02;101408.78;;;16.89;100.00
29935;BME280;19905;53.370;-6.314;2022-10-03T13:29:38;101399.78;;;17.09;100.00
29935;BME280;19905;53.370;-6.314;2022-10-03T13:32:16;101402.97;;;17.32;100.00
29935;BME280;19905;53.370;-6.314;2022-10-03T13:35:11;101391.91;;;17.54;100.00
29935;BME280;19905;53.370;-6.314;2022-10-03T13:38:21;101380.56;;;17.52;100.00
29935;BME280;19905;53.370;-6.314;2022-10-03T13:41:06;101385.38;;;17.39;100.00
29935;BME280;19905;53.370;-6.314;2022-10-03T13:43:38;101388.81;;;17.12;100.00
29935;BME280;19905;53.370;-6.314;2022-10-03T13:46:15;101385.75;;;16.97;100.00
29935;BME280;19905;53.370;-6.314;2022-10-03T13:48:56;101385.72;;;17.07;100.00
29935;BME280;19905;53.370;-6.314;2022-10-03T13:51:35;101376.63;;;16.81;100.00
29935;BME280;19905;53.370;-6.314;2022-10-03T13:54:13;101379.28;;;17.00;100.00
29935;BME280;19905;53.370;-6.314;2022-10-03T13:56:51;101382.09;;;17.45;100.00
29935;BME280;19905;53.370;-6.314;2022-10-03T13:59:53;101361.13;;;17.97;100.00
29935;BME280;19905;53.370;-6.314;2022-10-03T14:02:38;101374.59;;;17.78;100.00
29935;BME280;19905;53.370;-6.314;2022-10-03T14:05:25;101361.91;;;18.08;100.00
29935;BME280;19905;53.370;-6.314;2022-10-03T14:08:08;101354.78;;;17.98;100.00
29935;BME280;19905;53.370;-6.314;2022-10-03T14:10:59;101357.28;;;18.00;100.00
29935;BME280;19905;53.370;-6.314;2022-10-03T14:13:44;101342.94;;;17.64;100.00
29935;BME280;19905;53.370;-6.314;2022-10-03T14:16:24;101361.22;;;17.31;100.00
29935;BME280;19905;53.370;-6.314;2022-10-03T14:19:04;101367.31;;;17.14;100.00
29935;BME280;19905;53.370;-6.314;2022-10-03T14:22:00;101360.09;;;17.34;100.00
29935;BME280;19905;53.370;-6.314;2022-10-03T14:24:48;101343.13;;;18.17;100.00
29935;BME280;19905;53.370;-6.314;2022-10-03T14:27:35;101364.59;;;17.80;100.00
29935;BME280;19905;53.370;-6.314;2022-10-03T14:30:08;101341.25;;;18.00;100.00
29935;BME280;19905;53.370;-6.314;2022-10-03T14:32:47;101351.56;;;18.76;100.00
29935;BME280;19905;53.370;-6.314;2022-10-03T14:35:28;101313.88;;;19.55;100.00
29935;BME280;19905;53.370;-6.314;2022-10-03T14:38:11;101321.66;;;18.45;100.00
29935;BME280;19905;53.370;-6.314;2022-10-03T14:40:47;101332.34;;;17.82;100.00
29935;BME280;19905;53.370;-6.314;2022-10-03T14:43:26;101319.59;;;17.38;100.00
29935;BME280;19905;53.370;-6.314;2022-10-03T14:46:00;101329.72;;;16.88;100.00
29935;BME280;19905;53.370;-6.314;2022-10-03T14:48:34;101328.59;;;16.81;100.00
29935;BME280;19905;53.370;-6.314;2022-10-03T14:53:49;101312.19;;;18.15;100.00
29935;BME280;19905;53.370;-6.314;2022-10-03T14:56:21;101295.00;;;18.97;100.00
29935;BME280;19905;53.370;-6.314;2022-10-03T14:58:53;101288.53;;;19.34;100.00
29935;BME280;19905;53.370;-6.314;2022-10-03T15:01:24;101286.81;;;18.98;100.00
29935;BME280;19905;53.370;-6.314;2022-10-03T15:04:01;101298.41;;;18.63;100.00
29935;BME280;19905;53.370;-6.314;2022-10-03T15:06:47;101295.16;;;18.16;100.00
29935;BME280;19905;53.370;-6.314;2022-10-03T15:09:24;101294.22;;;18.25;100.00
29935;BME280;19905;53.370;-6.314;2022-10-03T15:12:01;101296.03;;;17.89;100.00
29935;BME280;19905;53.370;-6.314;2022-10-03T15:14:34;101295.06;;;17.52;100.00
29935;BME280;19905;53.370;-6.314;2022-10-03T15:17:14;101297.97;;;17.59;100.00
29935;BME280;19905;53.370;-6.314;2022-10-03T15:19:47;101294.41;;;17.78;100.00
29935;BME280;19905;53.370;-6.314;2022-10-03T15:22:28;101269.78;;;19.76;100.00
29935;BME280;19905;53.370;-6.314;2022-10-03T15:25:05;101256.44;;;20.17;100.00
29935;BME280;19905;53.370;-6.314;2022-10-03T15:27:39;101255.47;;;20.67;100.00
29935;BME280;19905;53.370;-6.314;2022-10-03T15:30:19;101232.78;;;21.33;100.00
29935;BME280;19905;53.370;-6.314;2022-10-03T15:32:48;101245.34;;;21.49;100.00
29935;BME280;19905;53.370;-6.314;2022-10-03T15:35:22;101225.25;;;19.99;100.00
29935;BME280;19905;53.370;-6.314;2022-10-03T15:38:00;101235.59;;;19.36;100.00
29935;BME280;19905;53.370;-6.314;2022-10-03T15:40:35;101254.75;;;18.63;100.00
29935;BME280;19905;53.370;-6.314;2022-10-03T15:43:14;101285.38;;;18.07;100.00
29935;BME280;19905;53.370;-6.314;2022-10-03T15:45:45;101277.56;;;17.68;100.00
29935;BME280;19905;53.370;-6.314;2022-10-03T15:48:17;101280.53;;;17.37;100.00
29935;BME280;19905;53.370;-6.314;2022-10-03T15:50:51;101272.78;;;17.07;100.00
29935;BME280;19905;53.370;-6.314;2022-10-03T15:53:25;101273.41;;;16.81;100.00
29935;BME280;19905;53.370;-6.314;2022-10-03T15:56:11;101287.72;;;16.61;100.00
29935;BME280;19905;53.370;-6.314;2022-10-03T15:58:47;101273.56;;;16.60;100.00
29935;BME280;19905;53.370;-6.314;2022-10-03T16:01:19;101278.31;;;16.57;100.00
29935;BME280;19905;53.370;-6.314;2022-10-03T16:03:51;101285.50;;;16.46;100.00
29935;BME280;19905;53.370;-6.314;2022-10-03T16:06:24;101282.28;;;16.43;100.00
29935;BME280;19905;53.370;-6.314;2022-10-03T16:09:05;101284.69;;;16.26;100.00
29935;BME280;19905;53.370;-6.314;2022-10-03T16:11:45;101284.38;;;16.20;100.00
29935;BME280;19905;53.370;-6.314;2022-10-03T16:14:22;101279.34;;;16.26;100.00
29935;BME280;19905;53.370;-6.314;2022-10-03T16:16:55;101268.38;;;16.10;100.00
29935;BME280;19905;53.370;-6.314;2022-10-03T16:19:37;101262.47;;;16.07;100.00
29935;BME280;19905;53.370;-6.314;2022-10-03T16:22:15;101268.81;;;16.06;100.00
29935;BME280;19905;53.370;-6.314;2022-10-03T16:24:57;101268.09;;;16.04;100.00
29935;BME280;19905;53.370;-6.314;2022-10-03T16:27:29;101255.31;;;15.97;100.00
29935;BME280;19905;53.370;-6.314;2022-10-03T16:30:15;101273.53;;;15.92;100.00
29935;BME280;19905;53.370;-6.314;2022-10-03T16:32:52;101265.97;;;15.88;100.00
29935;BME280;19905;53.370;-6.314;2022-10-03T16:35:34;101262.22;;;16.00;100.00
29935;BME280;19905;53.370;-6.314;2022-10-03T16:38:16;101256.31;;;15.96;100.00
29935;BME280;19905;53.370;-6.314;2022-10-03T16:41:11;101256.56;;;15.93;100.00
29935;BME280;19905;53.370;-6.314;2022-10-03T16:43:54;101250.84;;;16.08;100.00
29935;BME280;19905;53.370;-6.314;2022-10-03T16:46:23;101257.16;;;15.97;100.00
29935;BME280;19905;53.370;-6.314;2022-10-03T16:48:54;101247.91;;;16.01;100.00
29935;BME280;19905;53.370;-6.314;2022-10-03T16:51:42;101253.06;;;15.93;100.00
29935;BME280;19905;53.370;-6.314;2022-10-03T16:54:13;101253.78;;;15.95;100.00
29935;BME280;19905;53.370;-6.314;2022-10-03T16:57:03;101233.31;;;15.95;100.00
29935;BME280;19905;53.370;-6.314;2022-10-03T16:59:37;101234.16;;;16.06;100.00
29935;BME280;19905;53.370;-6.314;2022-10-03T17:02:11;101226.00;;;15.97;100.00
29935;BME280;19905;53.370;-6.314;2022-10-03T17:04:44;101225.31;;;15.95;100.00
29935;BME280;19905;53.370;-6.314;2022-10-03T17:07:17;101232.34;;;15.96;100.00
29935;BME280;19905;53.370;-6.314;2022-10-03T17:09:51;101235.84;;;15.97;100.00
29935;BME280;19905;53.370;-6.314;2022-10-03T17:12:26;101225.75;;;15.91;100.00
29935;BME280;19905;53.370;-6.314;2022-10-03T17:15:00;101226.72;;;15.99;100.00
29935;BME280;19905;53.370;-6.314;2022-10-03T17:17:36;101225.44;;;15.94;100.00
29935;BME280;19905;53.370;-6.314;2022-10-03T17:20:14;101221.66;;;15.96;100.00
29935;BME280;19905;53.370;-6.314;2022-10-03T17:22:45;101210.88;;;15.98;100.00
29935;BME280;19905;53.370;-6.314;2022-10-03T17:25:39;101197.53;;;15.88;100.00